Lisbon, Portugal
Current Conditions -  °F | °C
As of 3:30 AM on Sunday 21 Dec 2014 (Local Time) from LPPT Reporting Station
Few Clouds Few Clouds  
Wind Chill:   Ceiling: Unl
Heat Index:   Visibility: 6mi
Dew Point:   Wind: 3mph
Humidity: 93%   Direction: 50°NE
Pressure: 30.45"   Gusts: NA
Location:  38.72°N, 9.14°W
Report Text: LPPT 210330Z 05003KT 010V070 9999 FEW003 07/06 Q1031
Loading
Personal Weather Stations






























Interactive Weather Map New forecast layout! Learn more

10-Day Weather Forecast

Advertisements
Track Severe Weather on mobile